UWLW

Ulyanovsk East Airport

Ulyanovsk, Russian Federation
TAF UWLW 201645Z 2018/2118 36003G09MPS 8000 BKN015 TEMPO 2018/2021 02010MPS 3100 -SHRA BR BKN011 SCT013CB BECMG 2107/2109 18003G09MPS FM211500 16006G12MPS 3100 -RA BKN011
Issued Valid From Valid To
Apr-20 @ 16:45 UTC
(2 hours ago)
Apr-20 @ 18:00 UTC
(29 minutes ago)
Apr-21 @ 18:00 UTC
(in 24 hours)
Apr-20 @ 18:00 to Apr-21 @ 07:00
TAF UWLW 201645Z 2018/2118 36003G09MPS 8000 BKN015
Wind Visibility Clouds
360° at 6 knots
 Gusting to 17 knots
7,998 meters
  • Broken at 1,500' AGL
Temporary Apr-20 @ 18:00 to Apr-20 @ 21:00
TEMPO 2018/2021 02010MPS 3100 -SHRA BR BKN011 SCT013CB
Wind Visibility Clouds Conditions
20° at 19 knots 3,106 meters
  • Broken at 1,100' AGL
  • Scattered at 1,300' AGL
  • Light Rain
  • Mist
Becoming Apr-21 @ 07:00 to Apr-21 @ 15:00
BECMG 2107/2109 18003G09MPS
Wind Visibility Clouds
180° at 6 knots
 Gusting to 17 knots
7,998 meters
  • Broken at 1,500' AGL
From Apr-21 @ 15:00 to Apr-21 @ 18:00
FM211500 16006G12MPS 3100 -RA BKN011
Wind Visibility Clouds Conditions
160° at 12 knots
 Gusting to 23 knots
3,106 meters
  • Broken at 1,100' AGL
  • Light Rain
TAF UWLW 201645Z 2018/2118 36003G09MPS 8000 BKN015 TEMPO 2018/2021 02010MPS 3100 -SHRA BR BKN011 SCT013CB BECMG 2107/2109 18003G09MPS FM211500 16006G12MPS 3100 -RA BKN011
Issued Apr-20 @ 16:45 UTC
(2 hours ago)
Valid From Apr-20 @ 18:00 UTC
(29 minutes ago)
Valid To Apr-21 @ 18:00 UTC
(in 24 hours)
Apr-20 @ 18:00 - Apr-21 @ 07:00
Wind Visibility
360° at 6 knots
 Gusting to 17 knots
7,998 meters
Clouds
  • Broken at 1,500' AGL
Temporary Apr-20 @ 18:00 - Apr-20 @ 21:00
Wind Visibility
20° at 19 knots 3,106 meters
Clouds
  • Broken at 1,100' AGL
  • Scattered at 1,300' AGL
Conditions
  • Light Rain
  • Mist
Becoming Apr-21 @ 07:00 - Apr-21 @ 15:00
Wind Visibility
180° at 6 knots
 Gusting to 17 knots
7,998 meters
Clouds
  • Broken at 1,500' AGL
From Apr-21 @ 15:00 - Apr-21 @ 18:00
Wind Visibility
160° at 12 knots
 Gusting to 23 knots
3,106 meters
Clouds
  • Broken at 1,100' AGL
Conditions
  • Light Rain